Flight Track Log - Related Links

Times and Time Zones

All times are in EDT time to prevent confusion due to time zone crossing. See the N2193W flight status page for this flight to view local times or setup timezone preferences in your user account.


Time Position Orientation Groundspeed Altitude Reporting Facility
EDT Latitude Longitude Course Direction KTS MPH feet Rate Location/Type
Thu 09:29:14 AM 31.4089 -97.8467 258° West 117 135 6,900  Level Houston Center
Thu 09:30:11 AM 31.4022 -97.8831 258° West 111 128 7,200 356 Climbing Fort Worth Center
Thu 09:31:12 AM 31.3958 -97.9219 259° West 112 129 7,600 347 Climbing Fort Worth Center
Thu 09:32:12 AM 31.3894 -97.9583 258° West 114 131 7,900 316 Climbing Fort Worth Center
Thu 09:33:25 AM 31.3811 -98.0022 257° West 115 132 8,300 257 Climbing Fort Worth Center
Thu 09:34:32 AM 31.3767 -98.0436 263° West 121 139 8,500 94 Climbing Fort Worth Center
Thu 09:35:33 AM 31.3681 -98.0872 257° West 133 153 8,500  Level Fort Worth Center
Thu 09:36:40 AM 31.3511 -98.1358 248° West 144 166 8,500  Level Fort Worth Center
Thu 09:37:22 AM 31.3425 -98.1650 251° West 144 166 8,500  Level Fort Worth Center
Thu 09:38:23 AM 31.3339 -98.2086 257° West 140 161 8,500  Level Fort Worth Center
Thu 09:39:24 AM 31.3253 -98.2547 258° West 139 160 8,500  Level Fort Worth Center
Thu 09:40:25 AM 31.3125 -98.3008 252° West 140 161 8,500  Level Fort Worth Center
Thu 09:42:39 AM 31.2969 -98.3936 259° West 139 160 8,500  Level Houston Center
Thu 09:43:41 AM 31.2869 -98.4375 255° West 140 161 8,500  Level Houston Center
Thu 09:44:43 AM 31.2778 -98.4822 257° West 140 161 8,500  Level Houston Center
Thu 09:45:45 AM 31.2681 -98.5261 255° West 140 161 8,500  Level Houston Center
Thu 09:46:47 AM 31.2592 -98.5708 257° West 139 160 8,500  Level Houston Center
Thu 09:47:49 AM 31.2486 -98.6169 255° West 143 165 8,500  Level Houston Center
Thu 09:48:51 AM 31.2389 -98.6700 258° West 143 165 8,500  Level Houston Center
Thu 09:49:53 AM 31.2278 -98.7153 254° West 143 165 8,500  Level Houston Center
Thu 09:50:55 AM 31.2164 -98.7600 253° West 143 165 8,500  Level Houston Center
Thu 09:51:57 AM 31.2078 -98.8047 257° West 142 163 8,500  Level Houston Center
Thu 09:52:59 AM 31.1986 -98.8511 257° West 144 166 8,500  Level Houston Center
Thu 09:54:01 AM 31.1889 -98.8975 256° West 145 167 8,500  Level Houston Center
Thu 09:55:03 AM 31.1778 -98.9417 254° West 141 162 8,500  Level Houston Center
Thu 09:56:05 AM 31.1667 -98.9947 256° West 143 165 8,500  Level Houston Center
Thu 09:57:07 AM 31.1569 -99.0406 256° West 145 167 8,500  Level Houston Center
Thu 09:58:09 AM 31.1469 -99.0858 256° West 143 165 8,500  Level Houston Center
Thu 09:59:12 AM 31.1378 -99.1314 257° West 143 165 8,500  Level Houston Center
Thu 10:00:13 AM 31.1278 -99.1736 255° West 143 165 8,500  Level Houston Center
Thu 10:01:15 AM 31.1181 -99.2181 256° West 142 163 8,500  Level Houston Center
Thu 10:02:17 AM 31.1058 -99.2731 255° West 146 168 8,500  Level Houston Center
Thu 10:03:19 AM 31.0950 -99.3189 255° West 147 169 8,500  Level Houston Center
Thu 10:04:22 AM 31.0847 -99.3625 255° West 142 163 8,500  Level Houston Center
Thu 10:05:24 AM 31.0767 -99.4064 258° West 141 162 8,500  Level Houston Center
Thu 10:06:26 AM 31.0656 -99.4506 254° West 141 162 8,500 -48 Level Houston Center
Thu 10:07:28 AM 31.0547 -99.5056 257° West 145 167 8,400 -48 Descending Houston Center
Thu 10:08:30 AM 31.0436 -99.5486 253° West 141 162 8,400  Level Houston Center
Thu 10:09:32 AM 31.0342 -99.5925 256° West 140 161 8,400  Level Houston Center
Thu 10:10:34 AM 31.0250 -99.6364 256° West 145 167 8,400  Level Houston Center
Thu 10:11:36 AM 31.0147 -99.6794 254° West 144 166 8,400  Level Houston Center
Thu 10:12:38 AM 31.0042 -99.7247 255° West 149 171 8,400  Level Houston Center
Thu 10:13:40 AM 30.9936 -99.7778 257° West 145 167 8,400 48 Level Houston Center
Thu 10:14:42 AM 30.9817 -99.8178 251° West 135 155 8,500  Climbing Houston Center
Thu 10:15:44 AM 30.9717 -99.8619 255° West 140 161 8,400  Descending Houston Center
Thu 10:16:46 AM 30.9622 -99.9072 256° West 142 163 8,500 48 Climbing Houston Center
Thu 10:17:48 AM 30.9514 -99.9511 254° West 143 165 8,500  Level Houston Center
Thu 10:18:50 AM 30.9431 -99.9947 257° West 141 162 8,500 -48 Level Houston Center
Thu 10:19:53 AM 30.9303 -100.0475 254° West 144 166 8,400 -48 Descending Houston Center
Thu 10:20:55 AM 30.9203 -100.0900 255° West 158 182 8,400 48 Level Houston Center
Thu 10:21:57 AM 30.9111 -100.1333 256° West 141 162 8,500 48 Climbing Houston Center
Thu 10:22:59 AM 30.9008 -100.1772 255° West 140 161 8,500  Level Houston Center
Thu 10:24:01 AM 30.8889 -100.2256 254° West 142 163 8,500  Level Houston Center
Thu 10:25:28 AM 30.8750 -100.2908 256° West 142 163 8,500  Level Houston Center
Thu 10:26:30 AM 30.8650 -100.3336 255° West 139 160 8,500 -48 Level Houston Center
Thu 10:27:32 AM 30.8553 -100.3753 255° West 136 157 8,400  Descending Houston Center
Thu 10:28:34 AM 30.8456 -100.4189 255° West 138 159 8,500 48 Climbing Houston Center
Thu 10:29:37 AM 30.8367 -100.4603 256° West 135 155 8,500  Level Houston Center
Thu 10:30:39 AM 30.8236 -100.5119 254° West 138 159 8,500  Level Houston Center
Thu 10:31:41 AM 30.8147 -100.5539 256° West 136 157 8,500 -48 Level Houston Center
Thu 10:32:43 AM 30.8044 -100.5975 255° West 139 160 8,400 -48 Descending Houston Center
Thu 10:33:45 AM 30.7942 -100.6397 254° West 139 160 8,400  Level Houston Center
Thu 10:34:47 AM 30.7842 -100.6833 255° West 140 161 8,400  Level Houston Center
Thu 10:35:49 AM 30.7722 -100.7325 254° West 138 159 8,400  Level Houston Center
Thu 10:36:51 AM 30.7631 -100.7753 256° West 138 159 8,400  Level Houston Center
Thu 10:37:54 AM 30.7533 -100.8181 255° West 139 160 8,400  Level Houston Center
Thu 10:38:56 AM 30.7425 -100.8622 254° West 142 163 8,400  Level Houston Center
Thu 10:39:58 AM 30.7325 -100.9033 254° West 138 159 8,400  Level Houston Center
Thu 10:41:00 AM 30.7219 -100.9450 254° West 137 158 8,400  Level Houston Center
Thu 10:42:02 AM 30.7103 -100.9956 255° West 136 157 8,400  Level Houston Center
Thu 10:43:04 AM 30.6997 -101.0386 254° West 140 161 8,400  Level Houston Center
Thu 10:44:06 AM 30.6903 -101.0814 256° West 139 160 8,400  Level Houston Center
Thu 10:45:08 AM 30.6811 -101.1242 256° West 141 162 8,400  Level Houston Center
Thu 10:46:10 AM 30.6703 -101.1650 253° West 138 159 8,400  Level Houston Center
Thu 10:47:13 AM 30.6506 -101.2125 244° Southwest 189 217 8,400  Level Houston Center
Thu 10:48:15 AM 30.6469 -101.2572 265° West 135 155 8,400  Level Houston Center
Thu 10:49:17 AM 30.6375 -101.2989 255° West 134 154 8,400  Level Houston Center
Thu 10:50:19 AM 30.6278 -101.3397 255° West 134 154 8,400  Level Houston Center
Thu 10:51:21 AM 30.6167 -101.3814 253° West 134 154 8,400  Level Houston Center
Thu 10:52:23 AM 30.6081 -101.4231 257° West 134 154 8,400  Level Houston Center
Thu 10:53:25 AM 30.5953 -101.4731 253° West 135 155 8,400  Level Houston Center
Thu 10:54:27 AM 30.5861 -101.5133 255° West 131 151 8,400  Level Houston Center
Thu 10:55:29 AM 30.5756 -101.5550 254° West 133 153 8,400  Level Houston Center
Thu 10:56:32 AM 30.5661 -101.5964 255° West 132 152 8,400  Level Houston Center
Thu 10:57:34 AM 30.5542 -101.6444 254° West 134 154 8,400  Level Houston Center
Thu 10:58:36 AM 30.5439 -101.6872 254° West 136 157 8,400  Level Houston Center
Thu 10:59:38 AM 30.5328 -101.7286 253° West 135 155 8,400  Level Houston Center
Thu 11:00:40 AM 30.5233 -101.7706 255° West 133 153 8,400  Level Houston Center
Thu 11:01:42 AM 30.5131 -101.8131 254° West 135 155 8,400  Level Houston Center
Thu 11:02:45 AM 30.5028 -101.8556 254° West 135 155 8,400  Level Houston Center
Thu 11:03:47 AM 30.4911 -101.9050 255° West 133 153 8,400  Level Houston Center
Thu 11:04:49 AM 30.4808 -101.9469 254° West 133 153 8,400  Level Houston Center
Thu 11:05:52 AM 30.4703 -101.9881 253° West 132 152 8,400  Level Houston Center
Thu 11:06:53 AM 30.4600 -102.0289 254° West 133 153 8,400  Level Houston Center
Thu 11:07:55 AM 30.4506 -102.0706 255° West 132 152 8,400  Level Houston Center
Thu 11:08:57 AM 30.4411 -102.1114 255° West 132 152 8,400  Level Houston Center
Thu 11:09:59 AM 30.4283 -102.1594 253° West 130 150 8,400  Level Houston Center
Thu 11:11:02 AM 30.4189 -102.1994 255° West 128 147 8,400  Level Houston Center
Thu 11:12:04 AM 30.4094 -102.2400 255° West 129 148 8,400  Level Houston Center
Thu 11:13:06 AM 30.3983 -102.2797 252° West 129 148 8,400  Level Houston Center
Thu 11:14:08 AM 30.3886 -102.3181 254° West 126 145 8,400  Level Houston Center
Thu 11:15:10 AM 30.3803 -102.3578 256° West 126 145 8,400  Level Houston Center
Thu 11:16:12 AM 30.3675 -102.4044 252° West 127 146 8,400  Level Houston Center
Thu 11:17:14 AM 30.3581 -102.4436 254° West 126 145 8,400  Level Houston Center
Thu 11:18:16 AM 30.3486 -102.4844 255° West 128 147 8,400  Level Houston Center
Thu 11:19:18 AM 30.3383 -102.5231 253° West 127 146 8,400  Level Houston Center
Thu 11:20:24 AM 30.3283 -102.5625 254° West 127 146 8,400  Level Albuquerque Center
Thu 11:22:00 AM 30.3103 -102.6315 253° West  Level FlightAware Approximate
Thu 11:29:00 AM 30.2334 -102.9238 253° West  Level FlightAware Approximate
Thu 11:30:00 AM 30.2224 -102.9655 253° West  Level FlightAware Approximate
Thu 11:31:00 AM 30.2114 -103.0072 253° West  Level FlightAware Approximate
Thu 11:32:00 AM 30.2003 -103.0489 253° West  Level FlightAware Approximate
Thu 11:33:00 AM 30.1894 -103.0907 253° West  Level FlightAware Approximate
Thu 11:34:00 AM 30.1785 -103.1324 253° West  Level FlightAware Approximate
Thu 11:35:00 AM 30.1676 -103.1742 253° West  Level FlightAware Approximate
Thu 11:36:00 AM 30.1567 -103.2159 253° West  Level FlightAware Approximate
Thu 11:37:00 AM 30.1458 -103.2576 253° West  Level FlightAware Approximate
Thu 11:38:00 AM 30.1348 -103.2993 253° West  Level FlightAware Approximate
Thu 11:39:00 AM 30.1239 -103.3410 253° West  Level FlightAware Approximate
Thu 11:40:00 AM 30.1129 -103.3828 253° West  Level FlightAware Approximate
Thu 11:41:00 AM 30.1019 -103.4244 253° West  Level FlightAware Approximate
Thu 11:42:00 AM 30.0910 -103.4661 253° West  Level FlightAware Approximate
Thu 11:43:00 AM 30.0800 -103.5078 253° West  Level FlightAware Approximate
Thu 11:44:00 AM 30.0689 -103.5495 253° West  Level FlightAware Approximate
Thu 11:45:00 AM 30.0579 -103.5911 253° West  Level FlightAware Approximate
Thu 11:46:00 AM 30.0469 -103.6327 253° West  Level FlightAware Approximate
Thu 11:47:00 AM 30.0358 -103.6744 253° West  Level FlightAware Approximate
Thu 11:48:00 AM 30.0247 -103.7160 253° West  Level FlightAware Approximate
Thu 11:49:00 AM 30.0137 -103.7576 253° West  Level FlightAware Approximate
Thu 11:50:00 AM 30.0026 -103.7992 253° West  Level FlightAware Approximate
Thu 11:51:00 AM 29.9914 -103.8408 253° West  Level FlightAware Approximate
Thu 11:52:00 AM 29.9803 -103.8824 253° West  Level FlightAware Approximate
Thu 11:53:00 AM 29.9692 -103.9239 253° West  Level FlightAware Approximate
Thu 11:54:00 AM 29.9590 -103.9659 255° West  Level FlightAware Approximate
Thu 11:55:00 AM 29.9492 -104.0079 255° West  Level FlightAware Approximate
Thu 11:56:00 AM 29.9393 -104.0499 255° West  Level FlightAware Approximate
Thu 11:57:00 AM 29.9295 -104.0918 255° West  Level FlightAware Approximate
Thu 11:58:00 AM 29.9196 -104.1338 255° West  Level FlightAware Approximate
Thu 11:59:00 AM 29.9097 -104.1758 255° West  Level FlightAware Approximate
Thu 12:00:00 PM 29.8995 -104.2176 240° Southwest  Level FlightAware Approximate
Thu 12:01:00 PM 29.8833 -104.2500 240° Southwest  Level FlightAware Approximate
Thu 12:02:00 PM 29.8930 -104.2616 240° Southwest  Level Estimated
Thu 12:03:00 PM 29.8930 -104.2616 240° Southwest  Level Estimated
Thu 12:04:00 PM 29.8930 -104.2616 240° Southwest  Level Estimated
Thu 12:05:00 PM 29.8930 -104.2616 240° Southwest  Level Estimated
Thu 12:06:00 PM 29.8930 -104.2616 240° Southwest  Level Estimated
Thu 12:07:00 PM 29.8930 -104.2616 240° Southwest  Level Estimated
Thu 12:08:00 PM 29.8930 -104.2616 240° Southwest  Level Estimated
Thu 12:09:00 PM 29.8930 -104.2616 240° Southwest  Level Estimated
Thu 12:10:00 PM 29.8930 -104.2616 240° Southwest  Level Estimated
Thu 12:11:00 PM 29.8930 -104.2616 240° Southwest  Level Estimated
Thu 12:12:00 PM 29.8930 -104.2616 240° Southwest  Level Estimated
Thu 12:13:00 PM 29.8930 -104.2616 240° Southwest  Level Estimated
Thu 12:14:00 PM 29.8930 -104.2616 240° Southwest  Level Estimated
Thu 12:15:00 PM 29.8930 -104.2616 240° Southwest  Level Estimated
Thu 12:16:00 PM 29.8930 -104.2616 240° Southwest  Level Estimated
Thu 12:17:00 PM 29.8930 -104.2616 240° Southwest  Level Estimated
Thu 12:18:00 PM 29.8930 -104.2616 240° Southwest  Level Estimated
Thu 12:19:00 PM 29.8930 -104.2616 240° Southwest  Level Estimated
Thu 12:20:00 PM 29.8930 -104.2616 240° Southwest  Level Estimated
Thu 12:21:00 PM 29.8930 -104.2616 240° Southwest  Level Estimated
Thu 12:22:00 PM 29.8930 -104.2616 240° Southwest  Level Estimated
Thu 12:23:00 PM 29.8930 -104.2616 240° Southwest  Level Estimated

Login

Don't have an account? Register now (free) for customized features, flight alerts, and more!